createdAt,value
2023-06-23T00:00:26.368Z,100573.22
2023-06-23T00:02:54.015Z,100570.47
2023-06-23T00:05:21.940Z,100578.22
2023-06-23T00:07:49.140Z,100582.66
2023-06-23T00:10:16.388Z,100592.66
2023-06-23T00:12:46.467Z,100598.66
2023-06-23T00:15:18.495Z,100612.41
2023-06-23T00:17:49.138Z,100613.22
2023-06-23T00:20:16.869Z,100614.84
2023-06-23T00:22:45.303Z,100618.91
2023-06-23T00:25:13.831Z,100612.91
2023-06-23T00:27:46.147Z,100608.69
2023-06-23T00:30:15.304Z,100603.47
2023-06-23T00:32:44.775Z,100602.78
2023-06-23T00:35:16.444Z,100590.91
2023-06-23T00:37:44.980Z,100603.41
2023-06-23T00:40:12.466Z,100596.00
2023-06-23T00:42:53.706Z,100594.38
2023-06-23T00:45:22.485Z,100586.69
2023-06-23T00:47:50.542Z,100587.47
2023-06-23T00:50:21.409Z,100584.22
2023-06-23T00:52:52.085Z,100588.50
2023-06-23T00:55:21.404Z,100588.50
2023-06-23T00:57:53.819Z,100596.03
2023-06-23T01:00:23.807Z,100583.41
2023-06-23T01:02:55.795Z,100597.66
2023-06-23T01:05:27.728Z,100596.88
2023-06-23T01:08:44.682Z,100602.81
2023-06-23T01:11:42.396Z,100614.66
2023-06-23T01:14:35.788Z,100616.44
2023-06-23T01:17:22.738Z,100629.88
2023-06-23T01:20:37.164Z,100633.34
2023-06-23T01:24:05.540Z,100637.59
2023-06-23T01:26:42.486Z,100635.16
2023-06-23T01:29:11.554Z,100645.34
2023-06-23T01:32:01.681Z,100640.09
2023-06-23T01:34:42.654Z,100651.13
2023-06-23T01:37:19.515Z,100637.56
2023-06-23T01:39:57.232Z,100639.22
2023-06-23T01:42:32.892Z,100635.84
2023-06-23T01:45:08.970Z,100638.38
2023-06-23T01:47:41.992Z,100634.22
2023-06-23T01:50:13.594Z,100634.94
2023-06-23T01:52:41.514Z,100622.50
2023-06-23T01:55:11.089Z,100639.22
2023-06-23T01:57:40.145Z,100625.84
2023-06-23T02:00:14.802Z,100627.44
2023-06-23T02:02:47.468Z,100624.06
2023-06-23T02:05:18.775Z,100627.50
2023-06-23T02:07:49.186Z,100643.50
2023-06-23T02:10:18.855Z,100627.66
2023-06-23T02:12:49.245Z,100628.31
2023-06-23T02:15:21.115Z,100636.56
2023-06-23T02:17:52.425Z,100627.50
2023-06-23T02:20:25.020Z,100623.19
2023-06-23T02:22:53.651Z,100623.38
2023-06-23T02:25:23.212Z,100632.63
2023-06-23T02:27:52.037Z,100628.22
2023-06-23T02:30:19.871Z,100624.06
2023-06-23T02:32:49.208Z,100628.22
2023-06-23T02:35:18.062Z,100625.72
2023-06-23T02:38:02.077Z,100617.41
2023-06-23T02:40:34.346Z,100615.69
2023-06-23T02:43:18.669Z,100624.84
2023-06-23T02:45:51.725Z,100619.03
2023-06-23T02:48:25.021Z,100620.78
2023-06-23T02:50:58.290Z,100627.34
2023-06-23T02:53:35.278Z,100630.75
2023-06-23T02:56:13.971Z,100626.50
2023-06-23T02:58:41.232Z,100615.56
2023-06-23T03:01:10.731Z,100623.94
2023-06-23T03:03:40.268Z,100618.06
2023-06-23T03:06:07.634Z,100622.31
2023-06-23T03:08:35.465Z,100624.03
2023-06-23T03:11:02.626Z,100624.66
2023-06-23T03:13:29.853Z,100624.75
2023-06-23T03:16:08.423Z,100616.44
2023-06-23T03:18:41.661Z,100617.16
2023-06-23T03:21:10.203Z,100623.16
2023-06-23T03:23:40.583Z,100615.69
2023-06-23T03:26:10.693Z,100615.41
2023-06-23T03:28:42.686Z,100629.75
2023-06-23T03:31:16.618Z,100637.34
2023-06-23T03:33:50.556Z,100640.84
2023-06-23T03:36:25.997Z,100640.97
2023-06-23T03:39:13.483Z,100649.28
2023-06-23T03:41:42.833Z,100640.06
2023-06-23T03:44:23.383Z,100646.69
2023-06-23T03:46:56.719Z,100651.78
2023-06-23T03:49:31.864Z,100653.41
2023-06-23T03:52:02.714Z,100654.19
2023-06-23T03:54:32.492Z,100644.88
2023-06-23T03:57:04.669Z,100658.44
2023-06-23T03:59:34.580Z,100660.31
2023-06-23T04:02:04.955Z,100657.75
2023-06-23T04:04:35.964Z,100663.78
2023-06-23T04:07:06.107Z,100667.06
2023-06-23T04:09:35.282Z,100672.97
2023-06-23T04:12:05.830Z,100680.41
2023-06-23T04:14:34.563Z,100677.03
2023-06-23T04:17:05.217Z,100674.63
2023-06-23T04:19:35.883Z,100673.69
2023-06-23T04:22:07.740Z,100674.53
2023-06-23T04:24:39.512Z,100680.34
2023-06-23T04:27:09.199Z,100674.56
2023-06-23T04:29:40.829Z,100677.88
2023-06-23T04:32:11.271Z,100674.66
2023-06-23T04:34:38.665Z,100670.25
2023-06-23T04:37:21.136Z,100681.16
2023-06-23T04:40:26.893Z,100682.88
2023-06-23T04:43:10.487Z,100687.03
2023-06-23T04:46:18.863Z,100686.03
2023-06-23T04:49:03.602Z,100685.47
2023-06-23T04:51:42.640Z,100689.47
2023-06-23T04:54:19.908Z,100689.34
2023-06-23T04:56:52.908Z,100690.91
2023-06-23T04:59:23.256Z,100681.88
2023-06-23T05:01:51.181Z,100686.84
2023-06-23T05:04:20.507Z,100685.19
2023-06-23T05:06:49.881Z,100683.03
2023-06-23T05:09:18.999Z,100684.59
2023-06-23T05:11:49.117Z,100691.94
2023-06-23T05:14:19.408Z,100692.88
2023-06-23T05:16:49.345Z,100694.34
2023-06-23T05:19:20.082Z,100689.91
2023-06-23T05:21:50.584Z,100695.22
2023-06-23T05:24:21.102Z,100696.94
2023-06-23T05:26:49.604Z,100702.69
2023-06-23T05:29:19.268Z,100699.25
2023-06-23T05:31:48.816Z,100711.09
2023-06-23T05:34:18.777Z,100703.75
2023-06-23T05:36:50.509Z,100717.00
2023-06-23T05:39:20.893Z,100725.66
2023-06-23T05:41:48.224Z,100729.81
2023-06-23T05:44:15.525Z,100736.16
2023-06-23T05:46:45.678Z,100735.72
2023-06-23T05:49:21.988Z,100741.81
2023-06-23T05:51:57.627Z,100742.22
2023-06-23T05:54:29.075Z,100751.66
2023-06-23T05:57:01.733Z,100761.44
2023-06-23T05:59:38.969Z,100759.72
2023-06-23T06:02:12.906Z,100764.56
2023-06-23T06:04:48.607Z,100785.13
2023-06-23T06:07:19.805Z,100782.13
2023-06-23T06:09:50.504Z,100800.41
2023-06-23T06:12:19.414Z,100802.19
2023-06-23T06:14:48.721Z,100797.31
2023-06-23T06:17:18.614Z,100818.06
2023-06-23T06:19:48.151Z,100823.47
2023-06-23T06:22:17.474Z,100837.09
2023-06-23T06:24:47.366Z,100855.44
2023-06-23T06:27:16.500Z,100861.78
2023-06-23T06:29:45.053Z,100868.00
2023-06-23T06:32:15.535Z,100874.78
2023-06-23T06:34:45.157Z,100889.19
2023-06-23T06:37:13.605Z,100885.47
2023-06-23T06:39:43.979Z,100896.81
2023-06-23T06:42:11.556Z,100900.56
2023-06-23T06:44:39.457Z,100917.19
2023-06-23T06:47:12.018Z,100929.25
2023-06-23T06:49:42.458Z,100929.34
2023-06-23T06:52:09.808Z,100922.53
2023-06-23T06:54:37.071Z,100932.09
2023-06-23T06:57:05.093Z,100928.13
2023-06-23T06:59:32.344Z,100928.38
2023-06-23T07:01:59.988Z,100932.97
2023-06-23T07:04:29.658Z,100942.28
2023-06-23T07:06:56.834Z,100944.53
2023-06-23T07:09:24.036Z,100945.81
2023-06-23T07:11:51.520Z,100957.47
2023-06-23T07:14:18.724Z,100957.56
2023-06-23T07:16:45.924Z,100972.66
2023-06-23T07:19:14.054Z,100966.53
2023-06-23T07:21:41.424Z,100974.91
2023-06-23T07:24:08.659Z,100977.59
2023-06-23T07:26:38.351Z,100973.97
2023-06-23T07:29:05.666Z,100989.47
2023-06-23T07:31:34.349Z,100990.72
2023-06-23T07:34:01.957Z,101001.38
2023-06-23T07:36:29.112Z,101011.63
2023-06-23T07:38:56.276Z,101016.91
2023-06-23T07:41:23.479Z,101028.25
2023-06-23T07:43:50.679Z,101037.63
2023-06-23T07:46:17.918Z,101031.91
2023-06-23T07:48:45.133Z,101044.59
2023-06-23T07:51:12.364Z,101049.31
2023-06-23T07:53:39.650Z,101050.19
2023-06-23T07:56:06.846Z,101065.75
2023-06-23T07:58:34.010Z,101064.63
2023-06-23T08:01:01.191Z,101071.72
2023-06-23T08:03:28.476Z,101079.75
2023-06-23T08:05:55.784Z,101091.66
2023-06-23T08:08:23.066Z,101101.06
2023-06-23T08:10:50.276Z,101106.66
2023-06-23T08:13:18.875Z,101111.81
2023-06-23T08:15:48.014Z,101118.63
2023-06-23T08:18:15.227Z,101117.69
2023-06-23T08:20:42.506Z,101124.38
2023-06-23T08:23:09.715Z,101130.66
2023-06-23T08:25:36.888Z,101140.03
2023-06-23T08:28:04.400Z,101143.09
2023-06-23T08:30:32.818Z,101145.50
2023-06-23T08:33:00.784Z,101151.06
2023-06-23T08:35:28.530Z,101161.84
2023-06-23T08:37:55.803Z,101176.38
2023-06-23T08:40:23.115Z,101179.78
2023-06-23T08:42:50.867Z,101177.09
2023-06-23T08:45:21.220Z,101173.38
2023-06-23T08:47:54.180Z,101185.63
2023-06-23T08:50:22.131Z,101188.38
2023-06-23T08:52:49.536Z,101192.78
2023-06-23T08:55:16.768Z,101195.06
2023-06-23T08:57:44.124Z,101203.13
2023-06-23T09:00:12.160Z,101207.19
2023-06-23T09:02:39.619Z,101216.13
2023-06-23T09:05:07.186Z,101219.03
2023-06-23T09:07:35.657Z,101221.56
2023-06-23T09:10:02.979Z,101228.66
2023-06-23T09:12:30.208Z,101226.34
2023-06-23T09:14:59.522Z,101236.94
2023-06-23T09:17:28.117Z,101250.97
2023-06-23T09:19:56.079Z,101246.91
2023-06-23T09:22:25.627Z,101252.19
2023-06-23T09:24:52.846Z,101254.28
2023-06-23T09:27:42.963Z,101267.88
2023-06-23T09:30:10.628Z,101264.03
2023-06-23T09:32:38.684Z,101263.03
2023-06-23T09:35:05.929Z,101275.78
2023-06-23T09:37:38.784Z,101274.81
2023-06-23T09:40:07.799Z,101280.25
2023-06-23T09:42:35.037Z,101289.00
2023-06-23T09:45:02.242Z,101293.81
2023-06-23T09:47:30.862Z,101300.59
2023-06-23T09:49:58.173Z,101294.44
2023-06-23T09:52:28.588Z,101304.81
2023-06-23T09:54:57.165Z,101301.38
2023-06-23T09:57:24.624Z,101305.97
2023-06-23T09:59:54.304Z,101316.03
2023-06-23T10:02:29.200Z,101322.06
2023-06-23T10:05:05.052Z,101322.22
2023-06-23T10:07:33.458Z,101321.09
2023-06-23T10:10:20.934Z,101315.28
2023-06-23T10:12:50.033Z,101331.19
2023-06-23T10:15:17.553Z,101342.31
2023-06-23T10:17:45.882Z,101338.00
2023-06-23T10:20:14.271Z,101345.31
2023-06-23T10:22:43.300Z,101346.97
2023-06-23T10:25:14.006Z,101345.50
2023-06-23T10:27:44.313Z,101349.03
2023-06-23T10:30:16.104Z,101345.09
2023-06-23T10:32:52.234Z,101352.38
2023-06-23T10:35:28.670Z,101352.06
2023-06-23T10:38:07.101Z,101352.06
2023-06-23T10:40:40.498Z,101354.63
2023-06-23T10:43:10.206Z,101354.69
2023-06-23T10:45:39.044Z,101355.38
2023-06-23T10:48:06.967Z,101364.34
2023-06-23T10:50:35.143Z,101363.84
2023-06-23T10:53:19.894Z,101371.59
2023-06-23T10:56:08.232Z,101378.31
2023-06-23T10:58:52.428Z,101383.56
2023-06-23T11:01:19.747Z,101386.09
2023-06-23T11:03:53.490Z,101397.00
2023-06-23T11:06:36.750Z,101388.63
2023-06-23T11:09:04.118Z,101392.03
2023-06-23T11:11:35.306Z,101401.00
2023-06-23T11:14:02.750Z,101406.59
2023-06-23T11:16:39.133Z,101410.28
2023-06-23T11:19:06.645Z,101419.25
2023-06-23T11:21:39.494Z,101416.72
2023-06-23T11:24:20.791Z,101419.84
2023-06-23T11:27:02.380Z,101420.28
2023-06-23T11:29:31.601Z,101430.22
2023-06-23T11:32:18.403Z,101434.03
2023-06-23T11:34:58.719Z,101441.66
2023-06-23T11:37:31.996Z,101438.66
2023-06-23T11:39:59.354Z,101441.63
2023-06-23T11:42:26.611Z,101456.00
2023-06-23T11:45:01.123Z,101453.28
2023-06-23T11:47:33.361Z,101463.16
2023-06-23T11:50:04.749Z,101466.34
2023-06-23T11:52:32.452Z,101477.44
2023-06-23T11:54:59.825Z,101475.31
2023-06-23T11:57:28.039Z,101473.66
2023-06-23T11:59:55.327Z,101488.06
2023-06-23T12:02:23.453Z,101485.56
2023-06-23T12:04:50.948Z,101487.13
2023-06-23T12:07:18.409Z,101489.19
2023-06-23T12:09:46.758Z,101496.34
2023-06-23T12:12:17.412Z,101500.75
2023-06-23T12:14:45.423Z,101500.53
2023-06-23T12:17:14.075Z,101501.53
2023-06-23T12:19:44.905Z,101512.16
2023-06-23T12:22:19.770Z,101514.41
2023-06-23T12:24:47.862Z,101521.47
2023-06-23T12:27:15.823Z,101523.84
2023-06-23T12:29:43.143Z,101523.91
2023-06-23T12:32:10.614Z,101515.81
2023-06-23T12:34:45.495Z,101519.03
2023-06-23T12:37:17.984Z,101525.84
2023-06-23T12:39:53.945Z,101530.13
2023-06-23T12:42:22.429Z,101525.78
2023-06-23T12:44:50.861Z,101532.66
2023-06-23T12:47:21.017Z,101529.41
2023-06-23T12:49:48.956Z,101536.91
2023-06-23T12:52:16.523Z,101533.84
2023-06-23T12:54:44.491Z,101540.81
2023-06-23T12:57:12.145Z,101534.63
2023-06-23T12:59:39.368Z,101535.63
2023-06-23T13:02:07.146Z,101540.69
2023-06-23T13:04:34.465Z,101540.84
2023-06-23T13:07:02.013Z,101550.50
2023-06-23T13:09:29.887Z,101544.31
2023-06-23T13:11:57.068Z,101550.09
2023-06-23T13:14:24.445Z,101556.91
2023-06-23T13:16:51.652Z,101548.03
2023-06-23T13:19:18.861Z,101560.63
2023-06-23T13:21:48.273Z,101562.88
2023-06-23T13:24:15.822Z,101567.00
2023-06-23T13:26:44.480Z,101566.44
2023-06-23T13:29:12.616Z,101567.44
2023-06-23T13:31:40.028Z,101563.38
2023-06-23T13:34:07.278Z,101556.91
2023-06-23T13:36:35.575Z,101565.13
2023-06-23T13:39:04.098Z,101559.19
2023-06-23T13:41:31.273Z,101565.19
2023-06-23T13:43:58.442Z,101561.69
2023-06-23T13:46:25.704Z,101564.16
2023-06-23T13:48:52.855Z,101565.47
2023-06-23T13:51:20.060Z,101560.97
2023-06-23T13:53:47.265Z,101563.69
2023-06-23T13:56:14.438Z,101563.88
2023-06-23T13:58:41.700Z,101596.34
2023-06-23T14:01:08.907Z,101572.31
2023-06-23T14:03:36.166Z,101581.47
2023-06-23T14:06:05.125Z,101575.59
2023-06-23T14:08:34.742Z,101584.38
2023-06-23T14:11:02.324Z,101576.97
2023-06-23T14:13:32.174Z,101584.34
2023-06-23T14:16:00.213Z,101591.16
2023-06-23T14:18:28.431Z,101587.13
2023-06-23T14:20:55.587Z,101579.66
2023-06-23T14:23:22.853Z,101597.47
2023-06-23T14:25:50.240Z,101590.00
2023-06-23T14:28:17.581Z,101583.41
2023-06-23T14:30:45.652Z,101580.03
2023-06-23T14:33:13.081Z,101595.13
2023-06-23T14:35:40.298Z,101587.66
2023-06-23T14:38:07.527Z,101584.09
2023-06-23T14:40:34.781Z,101591.81
2023-06-23T14:43:03.406Z,101578.50
2023-06-23T14:45:39.448Z,101596.81
2023-06-23T14:48:07.932Z,101592.06
2023-06-23T14:50:35.691Z,101594.50
2023-06-23T14:53:03.140Z,101599.09
2023-06-23T14:55:33.921Z,101599.53
2023-06-23T14:58:04.504Z,101604.03
2023-06-23T15:00:32.703Z,101603.81
2023-06-23T15:03:00.116Z,101606.59
2023-06-23T15:05:27.463Z,101606.59
2023-06-23T15:07:57.225Z,101610.22
2023-06-23T15:10:24.460Z,101602.03
2023-06-23T15:12:52.136Z,101603.56
2023-06-23T15:15:19.355Z,101603.63
2023-06-23T15:17:46.583Z,101607.13
2023-06-23T15:20:14.625Z,101605.47
2023-06-23T15:22:43.423Z,101604.59
2023-06-23T15:25:11.123Z,101608.09
2023-06-23T15:27:38.745Z,101611.38
2023-06-23T15:30:07.032Z,101611.50
2023-06-23T15:32:34.354Z,101608.06
2023-06-23T15:35:02.073Z,101617.94
2023-06-23T15:37:29.794Z,101619.66
2023-06-23T15:39:59.556Z,101616.97
2023-06-23T15:42:27.199Z,101612.63
2023-06-23T15:44:54.397Z,101620.41
2023-06-23T15:47:21.790Z,101614.13
2023-06-23T15:49:49.018Z,101606.66
2023-06-23T15:52:16.208Z,101604.75
2023-06-23T15:54:43.422Z,101610.88
2023-06-23T15:57:11.981Z,101606.81
2023-06-23T15:59:39.459Z,101601.78
2023-06-23T16:02:07.091Z,101594.44
2023-06-23T16:04:34.364Z,101603.00
2023-06-23T16:07:01.761Z,101589.59
2023-06-23T16:09:29.197Z,101599.50
2023-06-23T16:11:56.594Z,101596.25
2023-06-23T16:14:24.021Z,101597.78
2023-06-23T16:16:51.197Z,101600.03
2023-06-23T16:19:18.377Z,101649.47
2023-06-23T16:21:48.616Z,101595.97
2023-06-23T16:24:16.274Z,101614.75
2023-06-23T16:26:43.527Z,101610.44
2023-06-23T16:29:11.000Z,101613.53
2023-06-23T16:31:38.894Z,101609.16
2023-06-23T16:34:06.515Z,101615.28
2023-06-23T16:36:33.783Z,101614.44
2023-06-23T16:39:01.011Z,101609.56
2023-06-23T16:41:28.254Z,101615.53
2023-06-23T16:43:55.449Z,101609.75
2023-06-23T16:46:22.735Z,101607.97
2023-06-23T16:48:50.081Z,101608.94
2023-06-23T16:51:20.780Z,101611.22
2023-06-23T16:53:52.997Z,101602.91
2023-06-23T16:56:20.697Z,101607.16
2023-06-23T16:58:48.190Z,101617.16
2023-06-23T17:01:15.859Z,101600.16
2023-06-23T17:03:43.126Z,101607.88
2023-06-23T17:06:10.379Z,101604.53
2023-06-23T17:08:37.561Z,101613.63
2023-06-23T17:11:04.786Z,101618.88
2023-06-23T17:13:31.965Z,101610.47
2023-06-23T17:15:59.192Z,101621.53
2023-06-23T17:18:26.360Z,101619.72
2023-06-23T17:20:54.086Z,101615.56
2023-06-23T17:23:21.317Z,101610.28
2023-06-23T17:25:48.567Z,101619.56
2023-06-23T17:28:15.744Z,101618.75
2023-06-23T17:30:42.997Z,101620.25
2023-06-23T17:33:10.395Z,101624.63
2023-06-23T17:35:37.722Z,101631.34
2023-06-23T17:38:04.987Z,101625.50
2023-06-23T17:40:32.170Z,101628.03
2023-06-23T17:42:59.378Z,101626.28
2023-06-23T17:45:28.378Z,101617.06
2023-06-23T17:47:55.632Z,101614.47
2023-06-23T17:50:24.149Z,101611.81
2023-06-23T17:52:51.751Z,101613.56
2023-06-23T17:55:18.942Z,101612.66
2023-06-23T17:57:46.354Z,101615.16
2023-06-23T18:00:14.210Z,101613.47
2023-06-23T18:02:43.038Z,101608.34
2023-06-23T18:05:10.400Z,101616.00
2023-06-23T18:07:37.638Z,101610.06
2023-06-23T18:10:05.296Z,101616.00
2023-06-23T18:12:32.492Z,101615.84
2023-06-23T18:14:59.712Z,101611.59
2023-06-23T18:17:26.996Z,101615.88
2023-06-23T18:19:54.203Z,101611.59
2023-06-23T18:22:21.400Z,101612.50
2023-06-23T18:24:48.617Z,101613.34
2023-06-23T18:27:15.932Z,101615.03
2023-06-23T18:29:43.100Z,101607.31
2023-06-23T18:32:28.851Z,101611.56
2023-06-23T18:34:56.166Z,101608.13
2023-06-23T18:37:23.494Z,101609.84
2023-06-23T18:39:50.847Z,101611.50
2023-06-23T18:42:18.581Z,101609.72
2023-06-23T18:44:46.917Z,101607.91
2023-06-23T18:47:14.145Z,101606.03
2023-06-23T18:49:41.872Z,101598.53
2023-06-23T18:52:09.096Z,101602.78
2023-06-23T18:54:36.327Z,101605.19
2023-06-23T18:57:03.714Z,101607.72
2023-06-23T18:59:31.580Z,101613.66
2023-06-23T19:01:58.778Z,101611.94
2023-06-23T19:04:25.983Z,101613.53
2023-06-23T19:06:53.205Z,101611.94
2023-06-23T19:09:20.427Z,101617.75
2023-06-23T19:11:48.313Z,101614.19
2023-06-23T19:14:15.592Z,101615.16
2023-06-23T19:16:42.784Z,101616.78
2023-06-23T19:19:10.136Z,101625.16
2023-06-23T19:21:37.345Z,101619.03
2023-06-23T19:24:05.426Z,101621.56
2023-06-23T19:26:32.677Z,101627.34
2023-06-23T19:29:00.411Z,101629.81
2023-06-23T19:31:27.642Z,101636.69
2023-06-23T19:33:54.829Z,101632.94
2023-06-23T19:36:22.048Z,101631.84
2023-06-23T19:38:49.247Z,101646.19
2023-06-23T19:41:16.432Z,101643.63
2023-06-23T19:43:43.645Z,101643.72
2023-06-23T19:46:11.032Z,101644.47
2023-06-23T19:48:38.516Z,101654.50
2023-06-23T19:51:05.730Z,101650.16
2023-06-23T19:53:32.924Z,101655.56
2023-06-23T19:56:00.236Z,101658.09
2023-06-23T19:58:27.482Z,101662.69
2023-06-23T20:00:55.981Z,101661.38
2023-06-23T20:03:23.216Z,101674.78
2023-06-23T20:05:50.575Z,101668.88
2023-06-23T20:08:17.822Z,101673.25
2023-06-23T20:10:45.321Z,101679.47
2023-06-23T20:13:12.558Z,101672.41
2023-06-23T20:15:39.780Z,101679.19
2023-06-23T20:18:07.222Z,101672.34
2023-06-23T20:20:34.751Z,101675.66
2023-06-23T20:23:03.338Z,101679.94
2023-06-23T20:25:30.693Z,101677.75
2023-06-23T20:27:57.899Z,101675.44
2023-06-23T20:30:25.183Z,101680.25
2023-06-23T20:32:52.777Z,101683.47
2023-06-23T20:35:20.059Z,101685.25
2023-06-23T20:37:47.268Z,101686.69
2023-06-23T20:40:15.461Z,101694.31
2023-06-23T20:42:42.832Z,101699.16
2023-06-23T20:45:10.262Z,101691.75
2023-06-23T20:47:37.922Z,101700.19
2023-06-23T20:50:08.788Z,101700.13
2023-06-23T20:52:35.988Z,101701.97
2023-06-23T20:55:03.311Z,101710.84
2023-06-23T20:57:30.550Z,101704.16
2023-06-23T20:59:57.720Z,101710.22
2023-06-23T21:02:24.963Z,101718.84
2023-06-23T21:04:52.204Z,101716.94
2023-06-23T21:07:19.555Z,101727.13
2023-06-23T21:09:47.551Z,101730.84
2023-06-23T21:12:14.944Z,101719.72
2023-06-23T21:14:49.112Z,101725.66
2023-06-23T21:17:19.807Z,101731.97
2023-06-23T21:19:47.009Z,101728.03
2023-06-23T21:22:14.216Z,101738.69
2023-06-23T21:24:41.471Z,101743.28
2023-06-23T21:27:09.435Z,101750.19
2023-06-23T21:29:36.799Z,101759.22
2023-06-23T21:32:04.354Z,101762.63
2023-06-23T21:34:31.548Z,101749.78
2023-06-23T21:36:58.866Z,101761.03
2023-06-23T21:39:26.164Z,101751.91
2023-06-23T21:41:53.583Z,101755.19
2023-06-23T21:44:20.916Z,101758.09
2023-06-23T21:46:48.228Z,101754.75
2023-06-23T21:49:15.448Z,101758.31
2023-06-23T21:51:43.767Z,101763.66
2023-06-23T21:54:11.001Z,101762.75
2023-06-23T21:56:38.497Z,101762.00
2023-06-23T21:59:05.676Z,101758.63
2023-06-23T22:01:33.656Z,101757.63
2023-06-23T22:04:01.162Z,101763.56
2023-06-23T22:06:29.538Z,101761.25
2023-06-23T22:08:56.717Z,101769.09
2023-06-23T22:11:23.935Z,101784.13
2023-06-23T22:13:52.533Z,101789.19
2023-06-23T22:16:19.932Z,101786.22
2023-06-23T22:18:50.175Z,101787.34
2023-06-23T22:21:21.915Z,101793.97
2023-06-23T22:23:49.183Z,101795.63
2023-06-23T22:26:16.534Z,101790.25
2023-06-23T22:28:43.810Z,101793.00
2023-06-23T22:31:11.063Z,101803.22
2023-06-23T22:33:38.579Z,101801.03
2023-06-23T22:36:06.362Z,101807.13
2023-06-23T22:38:34.084Z,101806.53
2023-06-23T22:41:01.864Z,101820.56
2023-06-23T22:43:29.328Z,101819.53
2023-06-23T22:45:56.623Z,101828.38
2023-06-23T22:48:23.829Z,101818.66
2023-06-23T22:50:51.060Z,101824.22
2023-06-23T22:53:18.633Z,101824.50
2023-06-23T22:55:45.984Z,101822.34
2023-06-23T22:58:13.311Z,101823.09
2023-06-23T23:00:40.700Z,101826.28
2023-06-23T23:03:08.032Z,101826.22
2023-06-23T23:05:35.262Z,101817.03
2023-06-23T23:08:02.554Z,101821.16
2023-06-23T23:10:29.815Z,101825.53
2023-06-23T23:12:58.204Z,101831.34
2023-06-23T23:15:25.589Z,101835.59
2023-06-23T23:17:52.890Z,101832.38
2023-06-23T23:20:20.182Z,101833.16
2023-06-23T23:22:47.568Z,101834.31
2023-06-23T23:25:14.843Z,101828.84
2023-06-23T23:27:42.231Z,101828.53
2023-06-23T23:30:10.010Z,101824.09
2023-06-23T23:32:39.126Z,101809.53
2023-06-23T23:35:12.341Z,101822.88
2023-06-23T23:37:41.145Z,101817.88
2023-06-23T23:40:12.272Z,101824.19
2023-06-23T23:42:41.492Z,101817.28
2023-06-23T23:45:10.072Z,101822.22
2023-06-23T23:47:37.865Z,101823.00
2023-06-23T23:50:06.150Z,101818.47
2023-06-23T23:52:33.367Z,101827.09
2023-06-23T23:55:00.704Z,101827.13
2023-06-23T23:57:28.954Z,101828.91
2023-06-23T23:59:56.178Z,101825.78
